Time;durP1;ratioP1;P1;durP2;ratioP2;P2;SDS_P1;SDS_P2;PMS_P1;PMS_P2;Temp;Humidity;BMP_temperature;BMP_pressure;BME280_temperature;BME280_humidity;BME280_pressure;Samples;Min_cycle;Max_cycle;Signal;HPM_P1;HPM_P2
2021/09/12 00:02:25;;;;;;;14.33;13.33;;;14.80;99.90;;;;;;4988822;28;20248;-77
2021/09/12 00:04:52;;;;;;;14.43;13.30;;;14.80;99.90;;;;;;4990163;28;20241;-78
2021/09/12 00:07:20;;;;;;;14.23;13.17;;;14.80;99.90;;;;;;4992761;28;20205;-78
2021/09/12 00:09:47;;;;;;;14.37;13.37;;;14.70;99.90;;;;;;4985418;28;20204;-78
2021/09/12 00:12:14;;;;;;;14.87;13.77;;;14.70;99.90;;;;;;4967349;28;20221;-78
2021/09/12 00:14:40;;;;;;;15.43;14.00;;;14.70;99.90;;;;;;4985202;28;20201;-78
2021/09/12 00:17:07;;;;;;;15.90;14.80;;;14.60;99.90;;;;;;4992457;28;20217;-78
2021/09/12 00:19:35;;;;;;;15.60;14.60;;;14.60;99.90;;;;;;4988672;28;20200;-78
2021/09/12 00:22:01;;;;;;;16.17;14.97;;;14.60;99.90;;;;;;4986503;28;20209;-78
2021/09/12 00:24:30;;;;;;;15.80;14.70;;;14.60;99.90;;;;;;4986962;28;20201;-77
2021/09/12 00:26:57;;;;;;;15.00;14.00;;;14.60;99.90;;;;;;4990791;28;20193;-78
2021/09/12 00:29:24;;;;;;;14.60;13.63;;;14.60;99.90;;;;;;4987139;28;20202;-79
2021/09/12 00:31:51;;;;;;;15.03;14.03;;;14.60;99.90;;;;;;4984554;28;20212;-77
2021/09/12 00:34:18;;;;;;;14.67;13.67;;;14.60;99.90;;;;;;4968697;28;20206;-78
2021/09/12 00:36:45;;;;;;;14.87;13.87;;;14.60;99.90;;;;;;4971508;28;20224;-78
2021/09/12 00:39:12;;;;;;;14.70;13.70;;;14.60;99.90;;;;;;4990956;28;20627;-78
2021/09/12 00:41:42;;;;;;;15.63;14.43;;;14.50;99.90;;;;;;4970034;28;20221;-77
2021/09/12 00:44:12;;;;;;;15.60;14.50;;;14.50;99.90;;;;;;4990415;28;20197;-78
2021/09/12 00:46:40;;;;;;;17.13;15.83;;;14.50;99.90;;;;;;4969571;28;20201;-78
2021/09/12 00:49:07;;;;;;;16.57;15.47;;;14.40;99.90;;;;;;4989348;28;20235;-78
2021/09/12 00:51:34;;;;;;;16.20;15.10;;;14.40;99.90;;;;;;4974861;28;20279;-78
2021/09/12 00:54:02;;;;;;;16.03;14.93;;;14.40;99.90;;;;;;4988766;28;20197;-78
2021/09/12 00:56:30;;;;;;;16.53;15.33;;;14.40;99.90;;;;;;4990786;28;20205;-78
2021/09/12 00:59:00;;;;;;;15.80;14.70;;;14.40;99.90;;;;;;4987469;28;20394;-78
2021/09/12 01:01:27;;;;;;;16.03;14.77;;;14.30;99.90;;;;;;4972775;28;20286;-79
2021/09/12 01:03:54;;;;;;;15.23;14.23;;;14.30;99.90;;;;;;4969794;28;20197;-78
2021/09/12 01:06:21;;;;;;;15.47;14.37;;;14.20;99.90;;;;;;4967201;28;20744;-79
2021/09/12 01:08:48;;;;;;;14.23;13.27;;;14.20;99.90;;;;;;4992583;28;20240;-78
2021/09/12 01:11:15;;;;;;;13.93;13.03;;;14.10;99.90;;;;;;4972153;28;20311;-79
2021/09/12 01:13:43;;;;;;;15.10;14.10;;;14.10;99.90;;;;;;4983956;28;20264;-77
2021/09/12 01:16:13;;;;;;;14.60;13.60;;;14.10;99.90;;;;;;4986256;28;20205;-78
2021/09/12 01:18:41;;;;;;;15.50;14.50;;;14.10;99.90;;;;;;4971101;28;20601;-78
2021/09/12 01:21:10;;;;;;;14.10;13.20;;;14.10;99.90;;;;;;4985136;28;20260;-78
2021/09/12 01:23:37;;;;;;;14.40;13.50;;;14.00;99.90;;;;;;4988945;28;20287;-79
2021/09/12 01:26:06;;;;;;;14.10;13.20;;;14.00;99.90;;;;;;4986078;28;20621;-79
2021/09/12 01:28:33;;;;;;;14.30;13.30;;;13.90;99.90;;;;;;4966632;28;20205;-78
2021/09/12 01:31:00;;;;;;;14.33;13.33;;;13.90;99.90;;;;;;4970278;28;20275;-78
2021/09/12 01:33:27;;;;;;;14.07;13.17;;;13.90;99.90;;;;;;4984137;28;20709;-78
2021/09/12 01:35:54;;;;;;;14.70;13.70;;;13.90;99.90;;;;;;4967007;28;20717;-79
2021/09/12 01:38:21;;;;;;;14.10;13.30;;;13.80;99.90;;;;;;4984468;28;20269;-78
2021/09/12 01:40:48;;;;;;;13.50;12.70;;;13.80;99.90;;;;;;4988363;28;20256;-77
2021/09/12 01:43:20;;;;;;;14.03;13.10;;;13.80;99.90;;;;;;4987406;28;20572;-78
2021/09/12 01:45:47;;;;;;;14.50;13.50;;;13.80;99.90;;;;;;4967505;28;20212;-79
2021/09/12 01:48:14;;;;;;;14.13;13.23;;;13.70;99.90;;;;;;4987311;28;20201;-78
2021/09/12 01:50:41;;;;;;;13.77;12.77;;;13.70;99.90;;;;;;4983821;28;20197;-77
2021/09/12 01:53:07;;;;;;;15.70;14.63;;;13.70;99.90;;;;;;4967409;28;20216;-78
2021/09/12 01:55:34;;;;;;;15.30;14.27;;;13.60;99.90;;;;;;4986533;28;20200;-78
2021/09/12 01:58:01;;;;;;;15.27;14.27;;;13.60;99.90;;;;;;4967601;28;20259;-78
2021/09/12 02:00:29;;;;;;;15.40;14.30;;;13.60;99.90;;;;;;4969963;28;20209;-78
2021/09/12 02:02:58;;;;;;;15.07;14.17;;;13.50;99.90;;;;;;4973600;28;20236;-78
2021/09/12 02:05:25;;;;;;;14.27;13.23;;;13.50;99.90;;;;;;4992292;28;20282;-78
2021/09/12 02:07:52;;;;;;;14.13;13.10;;;13.50;99.90;;;;;;4987286;28;20199;-78
2021/09/12 02:10:25;;;;;;;13.50;12.60;;;13.50;99.90;;;;;;4991615;28;20204;-78
2021/09/12 02:12:52;;;;;;;13.57;12.67;;;13.50;99.90;;;;;;4990036;28;20219;-78
2021/09/12 02:15:19;;;;;;;14.17;13.27;;;13.50;99.90;;;;;;4973703;28;20205;-78
2021/09/12 02:17:47;;;;;;;14.67;13.77;;;13.50;99.90;;;;;;4987034;28;20213;-78
2021/09/12 02:20:14;;;;;;;15.17;14.10;;;13.50;99.90;;;;;;4973641;28;20336;-77
2021/09/12 02:22:41;;;;;;;14.10;13.20;;;13.50;99.90;;;;;;4969579;28;20706;-79
2021/09/12 02:25:08;;;;;;;14.17;13.27;;;13.50;99.90;;;;;;4969742;28;20662;-79
2021/09/12 02:27:35;;;;;;;14.30;13.40;;;13.60;99.90;;;;;;4986190;28;20696;-79
2021/09/12 02:30:02;;;;;;;14.60;13.60;;;13.50;99.90;;;;;;4972590;28;20219;-78
2021/09/12 02:32:29;;;;;;;14.20;13.30;;;13.50;99.90;;;;;;4986755;28;20301;-78
2021/09/12 02:34:57;;;;;;;14.63;13.57;;;13.50;99.90;;;;;;4990410;28;20263;-78
2021/09/12 02:37:24;;;;;;;13.80;13.00;;;13.40;99.90;;;;;;4991320;28;20260;-78
2021/09/12 02:39:51;;;;;;;13.83;13.00;;;13.40;99.90;;;;;;4986764;28;20204;-78
2021/09/12 02:42:18;;;;;;;14.30;13.20;;;13.40;99.90;;;;;;4986450;28;20353;-78
2021/09/12 02:44:45;;;;;;;14.07;13.17;;;13.40;99.90;;;;;;4991264;28;20600;-78
2021/09/12 02:47:11;;;;;;;13.70;12.90;;;13.30;99.90;;;;;;4969127;28;20245;-77
2021/09/12 02:49:38;;;;;;;13.70;12.87;;;13.30;99.90;;;;;;4992677;28;20203;-78
2021/09/12 02:52:07;;;;;;;13.97;13.17;;;13.30;99.90;;;;;;4971642;28;20644;-78
2021/09/12 02:54:35;;;;;;;15.07;13.97;;;13.20;99.90;;;;;;4991524;28;20204;-79
2021/09/12 02:57:02;;;;;;;15.03;14.03;;;13.20;99.90;;;;;;4964102;28;20206;-77
2021/09/12 02:59:29;;;;;;;15.17;14.27;;;13.20;99.90;;;;;;4984829;28;20247;-78
2021/09/12 03:01:56;;;;;;;14.70;13.80;;;13.20;99.90;;;;;;4975880;28;20242;-79
2021/09/12 03:04:24;;;;;;;15.00;14.10;;;13.20;99.90;;;;;;4967853;28;20211;-78
2021/09/12 03:06:51;;;;;;;15.23;14.23;;;13.20;99.90;;;;;;4975448;28;20227;-78
2021/09/12 03:09:19;;;;;;;15.00;14.07;;;13.20;99.90;;;;;;4968886;28;20215;-78
2021/09/12 03:11:46;;;;;;;14.77;13.87;;;13.20;99.90;;;;;;4968736;28;20595;-78
2021/09/12 03:14:12;;;;;;;15.20;14.20;;;13.20;99.90;;;;;;4986148;28;20208;-78
2021/09/12 03:16:47;;;;;;;15.47;14.47;;;13.20;99.90;;;;;;4973069;28;20262;-81
2021/09/12 03:19:14;;;;;;;14.60;13.70;;;13.20;99.90;;;;;;4974512;28;20239;-81
2021/09/12 03:21:42;;;;;;;14.57;13.67;;;13.20;99.90;;;;;;4970086;28;20609;-81
2021/09/12 03:24:09;;;;;;;15.13;14.03;;;13.20;99.90;;;;;;4972338;28;20584;-81
2021/09/12 03:26:37;;;;;;;14.73;13.73;;;13.10;99.90;;;;;;4984815;28;20201;-79
2021/09/12 03:29:04;;;;;;;14.80;13.90;;;13.10;99.90;;;;;;4986455;28;20261;-81
2021/09/12 03:31:31;;;;;;;14.23;13.43;;;13.00;99.90;;;;;;4993010;28;20223;-82
2021/09/12 03:33:58;;;;;;;14.27;13.27;;;13.00;99.90;;;;;;4970450;28;20263;-81
2021/09/12 03:36:24;;;;;;;14.00;13.10;;;12.90;99.90;;;;;;4991599;28;20204;-82
2021/09/12 03:38:51;;;;;;;13.87;13.07;;;12.90;99.90;;;;;;4984681;28;20279;-80
2021/09/12 03:41:18;;;;;;;15.47;14.47;;;12.90;99.90;;;;;;4986698;28;20226;-81
2021/09/12 03:43:46;;;;;;;15.53;14.43;;;12.90;99.90;;;;;;4987789;28;20693;-82
2021/09/12 03:46:13;;;;;;;14.07;13.27;;;12.90;99.90;;;;;;4986641;28;20200;-81
2021/09/12 03:48:40;;;;;;;13.70;12.90;;;12.80;99.90;;;;;;4968422;28;20195;-81
2021/09/12 03:51:07;;;;;;;14.37;13.50;;;12.80;99.90;;;;;;4984786;28;20252;-80
2021/09/12 03:53:33;;;;;;;14.27;13.47;;;12.80;99.90;;;;;;4989816;28;20558;-81
2021/09/12 03:56:00;;;;;;;14.67;13.77;;;12.80;99.90;;;;;;4975405;28;20293;-81
2021/09/12 03:58:27;;;;;;;14.20;13.40;;;12.90;99.90;;;;;;4966648;28;20696;-81
2021/09/12 04:00:55;;;;;;;14.87;14.03;;;12.90;99.90;;;;;;4974496;28;20235;-81
2021/09/12 04:03:22;;;;;;;15.13;14.23;;;12.90;99.90;;;;;;4992554;28;20220;-81
2021/09/12 04:05:49;;;;;;;14.30;13.50;;;12.90;99.90;;;;;;4998119;28;20207;-81
2021/09/12 04:08:16;;;;;;;14.03;13.23;;;12.90;99.90;;;;;;4992219;28;20284;-82
2021/09/12 04:10:43;;;;;;;14.40;13.50;;;13.00;99.90;;;;;;4972924;28;20627;-81
2021/09/12 04:13:10;;;;;;;14.47;13.60;;;12.90;99.90;;;;;;4974756;28;20591;-81
2021/09/12 04:15:36;;;;;;;14.03;13.23;;;12.90;99.90;;;;;;4972645;28;20265;-81
2021/09/12 04:18:05;;;;;;;14.00;13.10;;;12.90;99.90;;;;;;4983312;28;20782;-80
2021/09/12 04:20:31;;;;;;;13.97;13.13;;;12.80;99.90;;;;;;4998201;28;20207;-82
2021/09/12 04:22:58;;;;;;;14.57;13.73;;;12.80;99.90;;;;;;4974930;28;20207;-82
2021/09/12 04:25:25;;;;;;;14.60;13.70;;;12.80;99.90;;;;;;4972982;28;20271;-81
2021/09/12 04:27:52;;;;;;;14.40;13.60;;;12.80;99.90;;;;;;4968443;28;20728;-82
2021/09/12 04:30:19;;;;;;;14.83;13.93;;;12.80;99.90;;;;;;4974920;28;20575;-83
2021/09/12 04:32:45;;;;;;;14.77;13.87;;;12.80;99.90;;;;;;4969693;28;20231;-83
2021/09/12 04:35:14;;;;;;;14.20;13.40;;;12.90;99.90;;;;;;4990110;28;20224;-81
2021/09/12 04:37:40;;;;;;;14.50;13.60;;;13.00;99.90;;;;;;4992423;28;20212;-81
2021/09/12 04:40:08;;;;;;;14.87;13.97;;;13.00;99.90;;;;;;4973187;28;20215;-81
2021/09/12 04:42:35;;;;;;;14.50;13.60;;;13.00;99.90;;;;;;4984384;28;20221;-81
2021/09/12 04:45:02;;;;;;;14.50;13.60;;;13.00;99.90;;;;;;4971966;28;20279;-83
2021/09/12 04:47:29;;;;;;;15.07;14.13;;;13.00;99.90;;;;;;4966940;28;20254;-83
2021/09/12 04:49:56;;;;;;;14.30;13.50;;;13.00;99.90;;;;;;4969832;28;20249;-81
2021/09/12 04:52:24;;;;;;;14.40;13.60;;;12.90;99.90;;;;;;4992092;28;20216;-82
2021/09/12 04:54:51;;;;;;;15.50;14.50;;;12.90;99.90;;;;;;4966620;28;20217;-82
2021/09/12 04:57:18;;;;;;;15.33;14.43;;;12.90;99.90;;;;;;4986532;28;20596;-82
2021/09/12 04:59:45;;;;;;;14.73;13.93;;;12.90;99.90;;;;;;4984895;28;20274;-81
2021/09/12 05:02:12;;;;;;;14.70;13.90;;;12.90;99.90;;;;;;4969377;28;20233;-81
2021/09/12 05:04:39;;;;;;;15.13;14.23;;;12.90;99.90;;;;;;4967859;28;20294;-82
2021/09/12 05:07:05;;;;;;;14.07;13.27;;;12.90;99.90;;;;;;4971588;28;20735;-82
2021/09/12 05:09:34;;;;;;;14.80;13.90;;;13.00;99.90;;;;;;4966074;28;20235;-82
2021/09/12 05:12:00;;;;;;;15.30;14.40;;;13.00;99.90;;;;;;4968037;28;20231;-81
2021/09/12 05:14:27;;;;;;;15.10;14.20;;;13.10;99.90;;;;;;4969173;28;20693;-81
2021/09/12 05:16:54;;;;;;;15.57;14.60;;;13.10;99.90;;;;;;4988752;28;20201;-81
2021/09/12 05:19:21;;;;;;;15.37;14.37;;;13.20;99.90;;;;;;4973929;28;20224;-80
2021/09/12 05:21:51;;;;;;;14.93;14.03;;;13.20;99.90;;;;;;4973548;28;20284;-79
2021/09/12 05:24:17;;;;;;;15.87;14.97;;;13.30;99.90;;;;;;4973345;28;20551;-80
2021/09/12 05:26:46;;;;;;;15.40;14.50;;;13.30;99.90;;;;;;4991374;28;21124;-80
2021/09/12 05:29:13;;;;;;;15.57;14.57;;;13.40;99.90;;;;;;4989909;28;20262;-78
2021/09/12 05:31:39;;;;;;;14.53;13.73;;;13.40;99.90;;;;;;5007390;28;20223;-80
2021/09/12 05:34:06;;;;;;;14.67;13.87;;;13.50;99.90;;;;;;4989744;28;20333;-81
2021/09/12 05:36:33;;;;;;;14.20;13.40;;;13.50;99.90;;;;;;4988303;28;20252;-79
2021/09/12 05:39:00;;;;;;;14.20;13.40;;;13.50;99.90;;;;;;4971189;28;20624;-81
2021/09/12 05:41:27;;;;;;;14.23;13.43;;;13.60;99.90;;;;;;4965115;28;20284;-81
2021/09/12 05:43:55;;;;;;;14.23;13.43;;;13.60;99.90;;;;;;4994348;28;20208;-81
2021/09/12 05:46:22;;;;;;;12.53;11.83;;;13.70;99.90;;;;;;4995262;28;20691;-81
2021/09/12 05:48:48;;;;;;;13.63;12.83;;;13.70;99.90;;;;;;4969665;28;20258;-81
2021/09/12 05:51:15;;;;;;;13.07;12.37;;;13.70;99.90;;;;;;4972968;28;20234;-81
2021/09/12 05:53:42;;;;;;;11.90;11.20;;;13.80;99.90;;;;;;4970978;28;20699;-81
2021/09/12 05:56:09;;;;;;;12.70;12.00;;;13.80;99.90;;;;;;4976952;28;20673;-81
2021/09/12 05:58:36;;;;;;;13.03;12.33;;;13.80;99.90;;;;;;4990698;28;20637;-81
2021/09/12 06:03:31;;;;;;;13.50;12.60;;;13.80;99.90;;;;;;4972691;28;20217;-77
2021/09/12 06:05:58;;;;;;;12.87;12.07;;;13.90;99.90;;;;;;4975046;28;20201;-76
2021/09/12 06:08:24;;;;;;;13.30;12.60;;;14.00;99.90;;;;;;4979244;28;20261;-77
2021/09/12 06:10:51;;;;;;;3.70;3.40;;;14.10;99.90;;;;;;4977270;28;20269;-78
2021/09/12 06:13:18;;;;;;;3.80;3.40;;;14.10;99.90;;;;;;4976071;28;20219;-77
2021/09/12 06:15:45;;;;;;;4.33;3.93;;;14.10;99.90;;;;;;4993930;28;20208;-77
2021/09/12 06:18:12;;;;;;;4.40;4.10;;;14.20;99.90;;;;;;4975655;28;20644;-80
2021/09/12 06:20:40;;;;;;;4.10;3.70;;;14.20;99.90;;;;;;4988040;28;20612;-77
2021/09/12 06:23:06;;;;;;;3.97;3.70;;;14.20;99.90;;;;;;4977944;28;20296;-78
2021/09/12 06:25:33;;;;;;;4.30;4.00;;;14.40;99.90;;;;;;4994622;28;20189;-77
2021/09/12 06:28:00;;;;;;;3.90;3.60;;;14.60;99.90;;;;;;4971947;28;20209;-78
2021/09/12 06:30:27;;;;;;;7.93;7.43;;;14.70;99.90;;;;;;4992067;28;20205;-76
2021/09/12 06:32:54;;;;;;;7.50;7.03;;;14.90;99.90;;;;;;4994694;28;20221;-77
2021/09/12 06:35:21;;;;;;;11.27;10.57;;;15.00;99.90;;;;;;4995530;28;20561;-78
2021/09/12 06:37:50;;;;;;;10.53;9.90;;;15.00;99.90;;;;;;4975290;28;20280;-79
2021/09/12 06:40:17;;;;;;;10.73;10.13;;;15.00;99.90;;;;;;4973310;28;20226;-79
2021/09/12 06:42:44;;;;;;;7.40;7.00;;;15.20;99.90;;;;;;4993312;28;20309;-78
2021/09/12 06:45:12;;;;;;;9.37;8.77;;;15.30;99.90;;;;;;4993684;28;20280;-78
2021/09/12 06:47:38;;;;;;;7.73;7.13;;;15.40;99.90;;;;;;4994841;28;20566;-78
2021/09/12 06:50:06;;;;;;;5.20;4.70;;;15.50;99.90;;;;;;4972561;28;20221;-78
2021/09/12 06:52:34;;;;;;;11.33;10.53;;;15.50;99.90;;;;;;4981814;28;20234;-78
2021/09/12 06:55:02;;;;;;;8.63;8.03;;;15.40;99.90;;;;;;4976600;28;20480;-78
2021/09/12 06:57:29;;;;;;;9.93;9.23;;;15.40;99.90;;;;;;4993963;28;20222;-78
2021/09/12 06:59:55;;;;;;;5.90;5.40;;;15.60;99.90;;;;;;4993119;28;20711;-78
2021/09/12 07:02:23;;;;;;;11.33;10.63;;;15.70;99.90;;;;;;4993574;28;20294;-78
2021/09/12 07:04:50;;;;;;;12.50;11.80;;;15.90;99.90;;;;;;4970352;28;20236;-79
2021/09/12 07:07:17;;;;;;;6.60;6.20;;;16.10;99.90;;;;;;4976408;28;20207;-78
2021/09/12 07:09:44;;;;;;;6.00;5.60;;;16.30;99.90;;;;;;4976873;28;20658;-80
2021/09/12 07:12:12;;;;;;;3.90;3.60;;;16.50;99.90;;;;;;4986826;28;20243;-78
2021/09/12 07:14:39;;;;;;;3.80;3.50;;;16.60;99.90;;;;;;4993829;28;20199;-78
2021/09/12 07:17:07;;;;;;;3.43;3.23;;;16.80;99.90;;;;;;4993296;28;20199;-77
2021/09/12 07:19:36;;;;;;;4.27;3.80;;;16.80;99.90;;;;;;4992880;28;20244;-78
2021/09/12 07:22:03;;;;;;;3.83;3.53;;;17.00;99.90;;;;;;4992905;28;20222;-77
2021/09/12 07:24:30;;;;;;;5.33;4.93;;;17.20;99.90;;;;;;4975241;28;20211;-77
2021/09/12 07:26:57;;;;;;;6.57;6.17;;;17.30;99.90;;;;;;4992997;28;20222;-76
2021/09/12 07:29:26;;;;;;;11.30;10.70;;;17.30;99.90;;;;;;4975814;28;20204;-79
2021/09/12 07:31:54;;;;;;;7.73;7.23;;;17.40;99.90;;;;;;4995266;28;20223;-78
2021/09/12 07:34:25;;;;;;;6.33;5.90;;;17.40;99.90;;;;;;4994382;28;20196;-78
2021/09/12 07:36:52;;;;;;;5.57;5.17;;;17.50;99.90;;;;;;4977743;28;20554;-79
2021/09/12 07:39:19;;;;;;;5.93;5.53;;;17.50;99.90;;;;;;4973514;28;20215;-79
2021/09/12 07:41:46;;;;;;;11.87;11.17;;;17.50;99.90;;;;;;4973535;28;20220;-78
2021/09/12 07:44:13;;;;;;;11.30;10.70;;;17.50;99.90;;;;;;4994070;28;20195;-78
2021/09/12 07:46:42;;;;;;;6.40;6.00;;;17.50;99.90;;;;;;4976363;28;20220;-78
2021/09/12 07:49:08;;;;;;;7.40;6.70;;;17.50;99.90;;;;;;4994868;28;20229;-78
2021/09/12 07:51:35;;;;;;;9.27;8.67;;;17.60;99.90;;;;;;4992163;28;20710;-78
2021/09/12 07:54:02;;;;;;;4.10;3.80;;;17.50;99.90;;;;;;4973805;28;20204;-79
2021/09/12 07:56:29;;;;;;;5.00;3.70;;;17.70;99.90;;;;;;4995689;28;20666;-78
2021/09/12 07:58:56;;;;;;;8.23;7.70;;;17.80;99.90;;;;;;4999607;28;20197;-78
2021/09/12 08:01:22;;;;;;;4.43;3.70;;;18.00;99.90;;;;;;4978638;28;20281;-78
2021/09/12 08:03:51;;;;;;;6.17;5.67;;;18.20;99.90;;;;;;4996078;28;20663;-78
2021/09/12 08:06:18;;;;;;;4.00;3.70;;;18.30;99.90;;;;;;4976685;28;20229;-77
2021/09/12 08:08:47;;;;;;;10.30;9.63;;;18.40;99.90;;;;;;4978036;28;20221;-77
2021/09/12 08:11:15;;;;;;;6.57;6.17;;;18.60;99.90;;;;;;4973613;28;20215;-79
2021/09/12 08:13:43;;;;;;;4.03;3.73;;;18.80;99.90;;;;;;4974965;28;20202;-78
2021/09/12 08:16:10;;;;;;;3.93;3.57;;;18.90;99.90;;;;;;4971713;28;20305;-78
2021/09/12 08:18:37;;;;;;;4.20;3.90;;;18.90;99.90;;;;;;4988724;28;20238;-79
2021/09/12 08:21:05;;;;;;;3.90;3.60;;;18.90;99.90;;;;;;4974885;28;20234;-78
2021/09/12 08:23:32;;;;;;;10.20;9.50;;;19.10;99.90;;;;;;4975329;28;20200;-79
2021/09/12 08:25:59;;;;;;;3.50;3.20;;;19.50;99.90;;;;;;4974794;28;20209;-78
2021/09/12 08:28:26;;;;;;;4.50;4.10;;;19.90;99.90;;;;;;4967471;28;20212;-78
2021/09/12 08:30:53;;;;;;;3.70;3.40;;;20.10;99.90;;;;;;4993947;28;20208;-78
2021/09/12 08:33:20;;;;;;;4.87;3.90;;;20.20;99.90;;;;;;4975230;28;20236;-77
2021/09/12 08:35:47;;;;;;;8.43;7.80;;;20.60;99.90;;;;;;4972647;28;20208;-79
2021/09/12 08:38:15;;;;;;;4.60;4.20;;;21.20;99.90;;;;;;4991684;28;20670;-76
2021/09/12 08:40:45;;;;;;;3.80;3.50;;;21.80;99.90;;;;;;4991135;28;20224;-76
2021/09/12 08:43:13;;;;;;;5.13;4.77;;;22.10;99.90;;;;;;4990127;28;20585;-78
2021/09/12 08:45:40;;;;;;;4.17;3.80;;;22.00;99.90;;;;;;4991588;28;20627;-77
2021/09/12 08:48:07;;;;;;;5.83;5.17;;;21.90;99.90;;;;;;4992782;28;20193;-77
2021/09/12 08:50:34;;;;;;;5.63;5.23;;;21.80;99.90;;;;;;4993885;28;20196;-77
2021/09/12 08:53:00;;;;;;;9.13;8.53;;;21.50;99.90;;;;;;4990494;28;20244;-78
2021/09/12 08:55:29;;;;;;;3.80;3.50;;;21.30;99.90;;;;;;4972618;28;20205;-78
2021/09/12 08:57:58;;;;;;;9.97;9.33;;;21.20;99.90;;;;;;4992085;28;20201;-78
2021/09/12 09:00:26;;;;;;;10.10;9.40;;;21.40;99.90;;;;;;4973738;28;20221;-76
2021/09/12 09:02:59;;;;;;;10.10;9.50;;;21.60;99.90;;;;;;4989978;28;20235;-77
2021/09/12 09:05:31;;;;;;;10.50;9.80;;;21.60;99.90;;;;;;4997089;28;20757;-80
2021/09/12 09:08:06;;;;;;;9.57;8.97;;;21.80;99.90;;;;;;4973063;28;20733;-78
2021/09/12 09:10:39;;;;;;;10.00;9.30;;;22.10;99.90;;;;;;4968508;28;20761;-77
2021/09/12 09:13:25;;;;;;;10.47;9.67;;;22.40;99.90;;;;;;4996311;28;20225;-79
2021/09/12 09:15:52;;;;;;;10.50;9.80;;;22.50;99.90;;;;;;4977436;28;20203;-80
2021/09/12 09:18:31;;;;;;;11.00;10.30;;;22.70;99.90;;;;;;4980238;28;20244;-76
2021/09/12 09:20:59;;;;;;;4.00;3.70;;;22.80;99.90;;;;;;4976702;28;20240;-78
2021/09/12 09:23:26;;;;;;;4.03;3.63;;;23.20;99.90;;;;;;4973361;28;20276;-79
2021/09/12 09:25:54;;;;;;;5.23;4.17;;;23.40;99.90;;;;;;4979500;28;20209;-77
2021/09/12 09:28:21;;;;;;;4.80;4.10;;;23.20;99.90;;;;;;4996351;28;20209;-77
2021/09/12 09:30:57;;;;;;;4.70;3.97;;;23.20;99.90;;;;;;4996548;28;20201;-79
2021/09/12 09:33:27;;;;;;;4.77;3.80;;;23.40;99.90;;;;;;4974656;28;20220;-82
2021/09/12 09:36:02;;;;;;;5.10;4.50;;;23.70;99.90;;;;;;4993981;28;20206;-79
2021/09/12 09:38:31;;;;;;;4.07;3.70;;;23.70;99.90;;;;;;4996215;28;20193;-78
2021/09/12 09:41:09;;;;;;;4.43;3.63;;;23.80;99.90;;;;;;4978103;28;20213;-79
2021/09/12 09:43:42;;;;;;;3.93;3.63;;;23.70;99.90;;;;;;4976945;28;20205;-78
2021/09/12 09:46:27;;;;;;;3.97;3.60;;;23.80;99.90;;;;;;4977181;28;20205;-79
2021/09/12 09:49:01;;;;;;;3.93;3.60;;;23.90;99.90;;;;;;4976221;28;20733;-78
2021/09/12 09:51:29;;;;;;;3.83;3.40;;;23.80;99.90;;;;;;4978389;28;20217;-78
2021/09/12 09:53:59;;;;;;;6.73;6.23;;;24.00;99.90;;;;;;4975107;28;20209;-79
2021/09/12 09:56:30;;;;;;;6.70;6.10;;;24.10;99.90;;;;;;4979012;28;20209;-79
2021/09/12 09:59:00;;;;;;;9.67;8.97;;;24.10;99.90;;;;;;4973116;28;20578;-78
2021/09/12 10:01:27;;;;;;;5.40;5.10;;;24.10;99.90;;;;;;4993145;28;20232;-78
2021/09/12 10:03:54;;;;;;;4.93;4.53;;;24.00;99.90;;;;;;4994560;28;20201;-78
2021/09/12 10:06:23;;;;;;;9.70;8.90;;;23.90;99.90;;;;;;4975628;28;20673;-78
2021/09/12 10:08:50;;;;;;;9.70;9.00;;;23.90;99.90;;;;;;4986140;28;20264;-77
2021/09/12 10:11:17;;;;;;;10.27;9.47;;;23.50;99.90;;;;;;4994388;28;20252;-77
2021/09/12 10:13:47;;;;;;;9.27;8.67;;;23.10;99.90;;;;;;4962808;28;20200;-76
2021/09/12 10:16:14;;;;;;;9.10;8.50;;;22.90;99.90;;;;;;4975919;28;20204;-76
2021/09/12 10:18:41;;;;;;;9.30;8.70;;;22.80;99.90;;;;;;4970793;28;20619;-77
2021/09/12 10:21:23;;;;;;;13.00;12.13;;;22.80;99.90;;;;;;4976515;28;20221;-76
2021/09/12 10:23:57;;;;;;;9.23;8.63;;;22.50;99.90;;;;;;4988354;28;20608;-78
2021/09/12 10:26:28;;;;;;;8.40;7.80;;;22.40;99.90;;;;;;4994078;28;20201;-77
2021/09/12 10:28:57;;;;;;;8.50;8.00;;;22.40;99.90;;;;;;4990789;28;20200;-77
2021/09/12 10:31:32;;;;;;;8.67;8.07;;;22.30;99.90;;;;;;4994252;28;20226;-77
2021/09/12 10:34:09;;;;;;;9.30;8.60;;;22.40;99.90;;;;;;4972952;28;20295;-78
2021/09/12 10:36:37;;;;;;;8.80;8.20;;;22.40;99.90;;;;;;4991354;28;20669;-76
2021/09/12 10:39:32;;;;;;;7.83;7.37;;;22.20;99.90;;;;;;4987620;28;20197;-76
2021/09/12 10:42:19;;;;;;;8.00;7.40;;;22.10;99.90;;;;;;4992015;28;20221;-75
2021/09/12 10:45:25;;;;;;;8.27;7.50;;;22.00;99.90;;;;;;4975106;28;20201;-76
2021/09/12 10:47:53;;;;;;;7.57;7.07;;;21.80;99.90;;;;;;4994580;28;20193;-78
2021/09/12 10:50:42;;;;;;;7.53;7.10;;;21.80;99.90;;;;;;4994122;28;20257;-78
2021/09/12 10:53:10;;;;;;;8.07;7.47;;;21.70;99.90;;;;;;4990724;28;20251;-77
2021/09/12 10:55:59;;;;;;;8.33;7.73;;;21.70;99.90;;;;;;4976357;28;20209;-78
2021/09/12 10:58:26;;;;;;;8.20;7.70;;;21.70;99.90;;;;;;4973103;28;20209;-77
2021/09/12 11:00:55;;;;;;;8.40;7.80;;;21.60;99.90;;;;;;4994018;28;20224;-78
2021/09/12 11:03:22;;;;;;;7.47;7.07;;;21.60;99.90;;;;;;4994618;28;20296;-76
2021/09/12 11:05:49;;;;;;;7.83;7.13;;;21.60;99.90;;;;;;4990715;28;20260;-78
2021/09/12 11:08:16;;;;;;;7.77;7.17;;;21.40;99.90;;;;;;4975545;28;20251;-77
2021/09/12 11:10:46;;;;;;;8.10;7.60;;;21.40;99.90;;;;;;4976950;28;20197;-76
2021/09/12 11:13:14;;;;;;;8.00;7.50;;;21.40;99.90;;;;;;4994158;28;20224;-78
2021/09/12 11:15:41;;;;;;;8.20;7.70;;;21.50;99.90;;;;;;4994063;28;20212;-77
2021/09/12 11:18:09;;;;;;;8.70;8.10;;;21.40;99.90;;;;;;4976596;28;20200;-78
2021/09/12 11:20:41;;;;;;;8.43;7.83;;;21.50;99.90;;;;;;4972268;28;20275;-78
2021/09/12 11:23:08;;;;;;;9.00;8.40;;;21.40;99.90;;;;;;4983142;28;20228;-77
2021/09/12 11:25:35;;;;;;;8.30;7.80;;;21.50;99.90;;;;;;4991863;28;20663;-77
2021/09/12 11:28:04;;;;;;;8.67;8.17;;;21.60;99.90;;;;;;4992102;28;20204;-77
2021/09/12 11:30:32;;;;;;;8.27;7.63;;;21.70;99.90;;;;;;4992650;28;20200;-78
2021/09/12 11:33:01;;;;;;;7.80;7.30;;;21.60;99.90;;;;;;4992264;28;20732;-77
2021/09/12 11:35:30;;;;;;;9.10;8.40;;;21.60;99.90;;;;;;4992378;28;20201;-77
2021/09/12 11:38:07;;;;;;;8.00;7.40;;;21.70;99.90;;;;;;4976384;28;20205;-74
2021/09/12 11:40:34;;;;;;;7.70;7.20;;;21.50;99.90;;;;;;4992969;28;20244;-76
2021/09/12 11:43:09;;;;;;;8.20;7.60;;;21.50;99.90;;;;;;4992725;28;20307;-78
2021/09/12 11:45:36;;;;;;;8.10;7.50;;;21.60;99.90;;;;;;4990989;28;20295;-78
2021/09/12 11:48:03;;;;;;;8.13;7.53;;;21.60;99.90;;;;;;4975175;28;20208;-77
2021/09/12 11:50:32;;;;;;;7.80;7.20;;;21.60;99.90;;;;;;4992917;28;20197;-78
2021/09/12 11:52:59;;;;;;;7.53;7.03;;;21.60;99.90;;;;;;4972179;28;20786;-78
2021/09/12 11:55:27;;;;;;;7.30;6.87;;;21.60;99.90;;;;;;4975298;28;20283;-78
2021/09/12 11:58:03;;;;;;;7.37;6.83;;;21.60;99.90;;;;;;4993599;28;20562;-77
2021/09/12 12:00:30;;;;;;;7.70;7.20;;;21.60;99.90;;;;;;4977793;28;20216;-77
2021/09/12 12:02:58;;;;;;;7.30;6.87;;;21.60;99.90;;;;;;5029947;23;20254;-76
2021/09/12 12:05:25;;;;;;;7.27;6.80;;;21.60;99.90;;;;;;5030991;28;20203;-76
2021/09/12 12:08:03;;;;;;;7.73;7.17;;;21.40;99.90;;;;;;5031057;28;20724;-75
2021/09/12 12:10:31;;;;;;;7.70;7.20;;;21.40;99.90;;;;;;5034561;28;20247;-78
2021/09/12 12:12:58;;;;;;;7.70;7.20;;;21.50;99.90;;;;;;5006850;28;20703;-76
2021/09/12 12:15:32;;;;;;;8.00;7.40;;;21.50;99.90;;;;;;5021955;28;20271;-76
2021/09/12 12:17:58;;;;;;;8.00;7.50;;;21.50;99.90;;;;;;5008819;28;20204;-76
2021/09/12 12:20:25;;;;;;;9.07;8.33;;;21.60;99.90;;;;;;5018512;28;20216;-76
2021/09/12 12:22:54;;;;;;;8.30;7.60;;;21.60;99.90;;;;;;5004278;28;20216;-76
2021/09/12 12:25:30;;;;;;;8.33;7.73;;;21.60;99.90;;;;;;5000625;28;20200;-76
2021/09/12 12:27:57;;;;;;;7.60;7.10;;;21.60;99.90;;;;;;5014900;28;20208;-76
2021/09/12 12:30:24;;;;;;;7.80;7.30;;;21.50;99.90;;;;;;5032290;28;20682;-77
2021/09/12 12:32:51;;;;;;;7.57;7.07;;;21.50;99.90;;;;;;5037736;28;20215;-77
2021/09/12 12:35:19;;;;;;;7.60;7.10;;;21.50;99.90;;;;;;5013449;28;20200;-76
2021/09/12 12:37:47;;;;;;;7.63;7.13;;;21.50;99.90;;;;;;5013703;28;20204;-76
2021/09/12 12:40:20;;;;;;;7.70;7.20;;;21.50;99.90;;;;;;5028894;28;20204;-76
2021/09/12 12:42:49;;;;;;;7.80;7.30;;;21.60;99.90;;;;;;5030199;28;20215;-80
2021/09/12 12:45:22;;;;;;;7.90;7.40;;;21.60;99.90;;;;;;5025655;28;20263;-76